sensor_id;sensor_type;location;lat;lon;timestamp;pressure;altitude;pressure_sealevel;temperature;humidity
20955;BME280;10636;19.390;-99.256;2024-03-06T00:01:54;77500.72;;;27.91;17.54
20955;BME280;10636;19.390;-99.256;2024-03-06T00:04:23;77495.84;;;27.83;17.77
20955;BME280;10636;19.390;-99.256;2024-03-06T00:06:51;77510.84;;;27.93;18.42
20955;BME280;10636;19.390;-99.256;2024-03-06T00:09:23;77513.56;;;27.93;18.19
20955;BME280;10636;19.390;-99.256;2024-03-06T00:11:53;77518.91;;;27.91;17.98
20955;BME280;10636;19.390;-99.256;2024-03-06T00:14:22;77517.47;;;27.87;18.56
20955;BME280;10636;19.390;-99.256;2024-03-06T00:16:50;77524.28;;;27.91;18.62
20955;BME280;10636;19.390;-99.256;2024-03-06T00:19:19;77520.91;;;27.90;18.38
20955;BME280;10636;19.390;-99.256;2024-03-06T00:21:48;77524.28;;;27.91;18.85
20955;BME280;10636;19.390;-99.256;2024-03-06T00:24:16;77527.00;;;27.91;18.90
20955;BME280;10636;19.390;-99.256;2024-03-06T00:26:46;77522.28;;;27.91;18.87
20955;BME280;10636;19.390;-99.256;2024-03-06T00:29:15;77521.53;;;27.88;19.24
20955;BME280;10636;19.390;-99.256;2024-03-06T00:31:44;77520.06;;;27.81;19.36
20955;BME280;10636;19.390;-99.256;2024-03-06T00:34:13;77532.28;;;27.86;19.50
20955;BME280;10636;19.390;-99.256;2024-03-06T00:36:42;77547.19;;;27.90;19.51
20955;BME280;10636;19.390;-99.256;2024-03-06T00:39:11;77556.56;;;27.88;19.92
20955;BME280;10636;19.390;-99.256;2024-03-06T00:41:40;77559.22;;;27.86;19.87
20955;BME280;10636;19.390;-99.256;2024-03-06T00:44:11;77553.84;;;27.86;20.27
20955;BME280;10636;19.390;-99.256;2024-03-06T00:46:39;77553.75;;;27.82;20.68
20955;BME280;10636;19.390;-99.256;2024-03-06T00:49:08;77551.13;;;27.84;20.74
20955;BME280;10636;19.390;-99.256;2024-03-06T00:51:36;77557.78;;;27.81;20.87
20955;BME280;10636;19.390;-99.256;2024-03-06T00:54:05;77565.81;;;27.79;20.85
20955;BME280;10636;19.390;-99.256;2024-03-06T00:56:37;77560.44;;;27.79;21.38
20955;BME280;10636;19.390;-99.256;2024-03-06T00:59:06;77561.44;;;27.66;21.32
20955;BME280;10636;19.390;-99.256;2024-03-06T01:01:36;77579.22;;;27.77;21.29
20955;BME280;10636;19.390;-99.256;2024-03-06T01:04:04;77579.88;;;27.76;21.74
20955;BME280;10636;19.390;-99.256;2024-03-06T01:06:33;77583.22;;;27.74;21.66
20955;BME280;10636;19.390;-99.256;2024-03-06T01:09:01;77584.53;;;27.73;21.74
20955;BME280;10636;19.390;-99.256;2024-03-06T01:11:30;77588.53;;;27.72;21.95
20955;BME280;10636;19.390;-99.256;2024-03-06T01:13:58;77589.88;;;27.71;21.84
20955;BME280;10636;19.390;-99.256;2024-03-06T01:16:27;77588.41;;;27.68;21.78
20955;BME280;10636;19.390;-99.256;2024-03-06T01:18:57;77601.97;;;27.70;21.92
20955;BME280;10636;19.390;-99.256;2024-03-06T01:21:26;77614.00;;;27.67;22.07
20955;BME280;10636;19.390;-99.256;2024-03-06T01:23:55;77608.59;;;27.67;21.93
20955;BME280;10636;19.390;-99.256;2024-03-06T01:26:23;77613.31;;;27.67;22.33
20955;BME280;10636;19.390;-99.256;2024-03-06T01:28:52;77620.72;;;27.66;22.16
20955;BME280;10636;19.390;-99.256;2024-03-06T01:31:20;77624.72;;;27.65;22.26
20955;BME280;10636;19.390;-99.256;2024-03-06T01:33:52;77622.00;;;27.63;22.41
20955;BME280;10636;19.390;-99.256;2024-03-06T01:36:22;77626.63;;;27.60;22.27
20955;BME280;10636;19.390;-99.256;2024-03-06T01:38:53;77634.03;;;27.60;22.27
20955;BME280;10636;19.390;-99.256;2024-03-06T01:41:22;77638.00;;;27.57;22.32
20955;BME280;10636;19.390;-99.256;2024-03-06T01:43:51;77640.06;;;27.58;22.77
20955;BME280;10636;19.390;-99.256;2024-03-06T01:46:19;77643.38;;;27.57;23.04
20955;BME280;10636;19.390;-99.256;2024-03-06T01:48:48;77655.47;;;27.56;22.77
20955;BME280;10636;19.390;-99.256;2024-03-06T01:51:16;77655.44;;;27.54;22.89
20955;BME280;10636;19.390;-99.256;2024-03-06T01:53:45;77662.88;;;27.55;23.09
20955;BME280;10636;19.390;-99.256;2024-03-06T01:56:14;77665.53;;;27.53;22.80
20955;BME280;10636;19.390;-99.256;2024-03-06T01:58:46;77664.06;;;27.48;23.24
20955;BME280;10636;19.390;-99.256;2024-03-06T02:01:16;77663.94;;;27.44;23.22
20955;BME280;10636;19.390;-99.256;2024-03-06T02:03:45;77672.72;;;27.45;23.23
20955;BME280;10636;19.390;-99.256;2024-03-06T02:06:14;77676.47;;;27.33;23.18
20955;BME280;10636;19.390;-99.256;2024-03-06T02:08:47;77684.69;;;27.40;22.85
20955;BME280;10636;19.390;-99.256;2024-03-06T02:11:16;77691.41;;;27.39;22.74
20955;BME280;10636;19.390;-99.256;2024-03-06T02:13:44;77689.38;;;27.37;22.90
20955;BME280;10636;19.390;-99.256;2024-03-06T02:16:13;77699.38;;;27.34;23.55
20955;BME280;10636;19.390;-99.256;2024-03-06T02:18:52;77699.28;;;27.30;22.85
20955;BME280;10636;19.390;-99.256;2024-03-06T02:21:22;77707.19;;;27.24;23.00
20955;BME280;10636;19.390;-99.256;2024-03-06T02:23:51;77719.84;;;27.20;23.26
20955;BME280;10636;19.390;-99.256;2024-03-06T02:26:21;77723.22;;;27.20;22.96
20955;BME280;10636;19.390;-99.256;2024-03-06T02:28:50;77721.66;;;27.11;23.01
20955;BME280;10636;19.390;-99.256;2024-03-06T02:31:19;77725.66;;;27.10;22.96
20955;BME280;10636;19.390;-99.256;2024-03-06T02:33:51;77683.75;;;26.79;23.10
20955;BME280;10636;19.390;-99.256;2024-03-06T02:36:21;77726.84;;;27.05;22.79
20955;BME280;10636;19.390;-99.256;2024-03-06T02:38:49;77737.59;;;27.05;23.29
20955;BME280;10636;19.390;-99.256;2024-03-06T02:41:18;77738.91;;;27.04;23.52
20955;BME280;10636;19.390;-99.256;2024-03-06T02:43:46;77737.69;;;27.07;23.22
20955;BME280;10636;19.390;-99.256;2024-03-06T02:46:15;77736.97;;;27.06;23.14
20955;BME280;10636;19.390;-99.256;2024-03-06T02:48:43;77737.75;;;27.09;23.27
20955;BME280;10636;19.390;-99.256;2024-03-06T02:51:12;77740.38;;;27.07;23.32
20955;BME280;10636;19.390;-99.256;2024-03-06T02:53:47;77745.13;;;27.08;23.29
20955;BME280;10636;19.390;-99.256;2024-03-06T02:56:19;77747.13;;;27.08;23.32
20955;BME280;10636;19.390;-99.256;2024-03-06T02:58:48;77757.22;;;27.07;22.77
20955;BME280;10636;19.390;-99.256;2024-03-06T03:01:16;77760.59;;;27.08;23.19
20955;BME280;10636;19.390;-99.256;2024-03-06T03:03:45;77759.09;;;27.03;23.04
20955;BME280;10636;19.390;-99.256;2024-03-06T03:06:14;77765.97;;;27.08;23.30
20955;BME280;10636;19.390;-99.256;2024-03-06T03:08:42;77770.00;;;27.07;23.24
20955;BME280;10636;19.390;-99.256;2024-03-06T03:11:13;77781.44;;;27.07;23.39
20955;BME280;10636;19.390;-99.256;2024-03-06T03:13:42;77784.13;;;27.07;23.04
20955;BME280;10636;19.390;-99.256;2024-03-06T03:16:16;77789.53;;;27.07;23.17
20955;BME280;10636;19.390;-99.256;2024-03-06T03:18:46;77788.13;;;27.06;23.35
20955;BME280;10636;19.390;-99.256;2024-03-06T03:21:15;77783.34;;;27.05;23.23
20955;BME280;10636;19.390;-99.256;2024-03-06T03:23:44;77792.81;;;27.06;23.07
20955;BME280;10636;19.390;-99.256;2024-03-06T03:26:14;77794.84;;;27.05;22.90
20955;BME280;10636;19.390;-99.256;2024-03-06T03:28:42;77797.53;;;27.05;23.18
20955;BME280;10636;19.390;-99.256;2024-03-06T03:31:11;77798.22;;;27.06;23.05
20955;BME280;10636;19.390;-99.256;2024-03-06T03:33:40;77792.81;;;27.06;23.21
20955;BME280;10636;19.390;-99.256;2024-03-06T03:36:11;77796.19;;;27.06;23.02
20955;BME280;10636;19.390;-99.256;2024-03-06T03:38:40;77803.66;;;27.08;23.05
20955;BME280;10636;19.390;-99.256;2024-03-06T03:41:11;77796.91;;;27.07;22.89
20955;BME280;10636;19.390;-99.256;2024-03-06T03:43:42;77798.59;;;26.96;23.12
20955;BME280;10636;19.390;-99.256;2024-03-06T03:46:10;77818.97;;;27.03;23.44
20955;BME280;10636;19.390;-99.256;2024-03-06T03:48:40;77810.16;;;27.01;23.44
20955;BME280;10636;19.390;-99.256;2024-03-06T03:51:08;77814.19;;;27.00;23.38
20955;BME280;10636;19.390;-99.256;2024-03-06T03:53:40;77814.09;;;26.98;23.37
20955;BME280;10636;19.390;-99.256;2024-03-06T03:56:08;77804.63;;;26.95;23.24
20955;BME280;10636;19.390;-99.256;2024-03-06T03:58:38;77805.91;;;26.94;23.31
20955;BME280;10636;19.390;-99.256;2024-03-06T04:01:32;77803.84;;;26.92;23.24
20955;BME280;10636;19.390;-99.256;2024-03-06T04:04:01;77803.13;;;26.90;23.17
20955;BME280;10636;19.390;-99.256;2024-03-06T04:06:29;77808.44;;;26.88;23.09
20955;BME280;10636;19.390;-99.256;2024-03-06T04:08:58;77819.16;;;26.85;23.03
20955;BME280;10636;19.390;-99.256;2024-03-06T04:11:26;77802.94;;;26.83;22.95
20955;BME280;10636;19.390;-99.256;2024-03-06T04:13:56;77810.31;;;26.83;23.06
20955;BME280;10636;19.390;-99.256;2024-03-06T04:16:27;77808.91;;;26.80;22.90
20955;BME280;10636;19.390;-99.256;2024-03-06T04:18:56;77798.00;;;26.76;23.20
20955;BME280;10636;19.390;-99.256;2024-03-06T04:21:24;77810.78;;;26.75;23.15
20955;BME280;10636;19.390;-99.256;2024-03-06T04:23:53;77807.28;;;26.71;23.03
20955;BME280;10636;19.390;-99.256;2024-03-06T04:26:22;77807.22;;;26.69;23.07
20955;BME280;10636;19.390;-99.256;2024-03-06T04:28:51;77779.59;;;26.44;23.18
20955;BME280;10636;19.390;-99.256;2024-03-06T04:31:20;77806.41;;;26.64;23.02
20955;BME280;10636;19.390;-99.256;2024-03-06T04:33:53;77805.03;;;26.63;23.27
20955;BME280;10636;19.390;-99.256;2024-03-06T04:36:21;77800.91;;;26.60;23.61
20955;BME280;10636;19.390;-99.256;2024-03-06T04:38:52;77797.44;;;26.57;23.67
20955;BME280;10636;19.390;-99.256;2024-03-06T04:41:21;77795.41;;;26.56;23.81
20955;BME280;10636;19.390;-99.256;2024-03-06T04:43:50;77804.78;;;26.55;23.84
20955;BME280;10636;19.390;-99.256;2024-03-06T04:46:19;77802.78;;;26.55;23.93
20955;BME280;10636;19.390;-99.256;2024-03-06T04:48:52;77798.66;;;26.52;24.09
20955;BME280;10636;19.390;-99.256;2024-03-06T04:51:21;77794.97;;;26.42;23.81
20955;BME280;10636;19.390;-99.256;2024-03-06T04:53:52;77809.97;;;26.49;24.05
20955;BME280;10636;19.390;-99.256;2024-03-06T04:56:21;77798.53;;;26.48;24.26
20955;BME280;10636;19.390;-99.256;2024-03-06T04:58:50;77808.63;;;26.48;24.32
20955;BME280;10636;19.390;-99.256;2024-03-06T05:01:21;77811.34;;;26.50;24.20
20955;BME280;10636;19.390;-99.256;2024-03-06T05:03:50;77807.34;;;26.51;24.41
20955;BME280;10636;19.390;-99.256;2024-03-06T05:06:20;77808.72;;;26.52;24.43
20955;BME280;10636;19.390;-99.256;2024-03-06T05:08:49;77806.03;;;26.52;24.61
20955;BME280;10636;19.390;-99.256;2024-03-06T05:11:17;77804.72;;;26.53;24.65
20955;BME280;10636;19.390;-99.256;2024-03-06T05:13:46;77804.72;;;26.53;24.52
20955;BME280;10636;19.390;-99.256;2024-03-06T05:16:14;77812.84;;;26.55;24.57
20955;BME280;10636;19.390;-99.256;2024-03-06T05:18:43;77802.66;;;26.51;24.80
20955;BME280;10636;19.390;-99.256;2024-03-06T05:21:11;77804.72;;;26.53;24.74
20955;BME280;10636;19.390;-99.256;2024-03-06T05:23:41;77802.09;;;26.55;24.63
20955;BME280;10636;19.390;-99.256;2024-03-06T05:26:10;77806.16;;;26.56;24.98
20955;BME280;10636;19.390;-99.256;2024-03-06T05:28:38;77791.38;;;26.57;24.68
20955;BME280;10636;19.390;-99.256;2024-03-06T05:31:16;77790.09;;;26.58;25.10
20955;BME280;10636;19.390;-99.256;2024-03-06T05:33:47;77785.41;;;26.58;25.05
20955;BME280;10636;19.390;-99.256;2024-03-06T05:36:16;77773.97;;;26.58;24.96
20955;BME280;10636;19.390;-99.256;2024-03-06T05:38:46;77775.94;;;26.57;24.93
20955;BME280;10636;19.390;-99.256;2024-03-06T05:41:16;77768.50;;;26.56;25.25
20955;BME280;10636;19.390;-99.256;2024-03-06T05:43:45;77763.13;;;26.56;24.88
20955;BME280;10636;19.390;-99.256;2024-03-06T05:46:14;77758.44;;;26.56;25.08
20955;BME280;10636;19.390;-99.256;2024-03-06T05:48:42;77753.81;;;26.59;25.07
20955;BME280;10636;19.390;-99.256;2024-03-06T05:51:11;77755.13;;;26.58;25.40
20955;BME280;10636;19.390;-99.256;2024-03-06T05:53:39;77729.19;;;26.45;25.29
20955;BME280;10636;19.390;-99.256;2024-03-06T05:56:12;77744.38;;;26.58;25.01
20955;BME280;10636;19.390;-99.256;2024-03-06T05:58:41;77748.44;;;26.59;25.27
20955;BME280;10636;19.390;-99.256;2024-03-06T06:01:12;77728.91;;;26.58;25.25
20955;BME280;10636;19.390;-99.256;2024-03-06T06:03:42;77733.66;;;26.60;25.19
20955;BME280;10636;19.390;-99.256;2024-03-06T06:06:10;77732.97;;;26.59;25.30
20955;BME280;10636;19.390;-99.256;2024-03-06T06:08:38;77728.97;;;26.61;25.01
20955;BME280;10636;19.390;-99.256;2024-03-06T06:11:08;77725.59;;;26.60;25.24
20955;BME280;10636;19.390;-99.256;2024-03-06T06:13:37;77717.53;;;26.60;25.28
20955;BME280;10636;19.390;-99.256;2024-03-06T06:16:06;77728.28;;;26.60;25.40
20955;BME280;10636;19.390;-99.256;2024-03-06T06:18:35;77737.66;;;26.59;25.35
20955;BME280;10636;19.390;-99.256;2024-03-06T06:21:04;77716.09;;;26.57;25.29
20955;BME280;10636;19.390;-99.256;2024-03-06T06:23:33;77726.22;;;26.58;25.12
20955;BME280;10636;19.390;-99.256;2024-03-06T06:26:02;77720.09;;;26.56;25.17
20955;BME280;10636;19.390;-99.256;2024-03-06T06:28:35;77725.47;;;26.56;25.39
20955;BME280;10636;19.390;-99.256;2024-03-06T06:31:04;77724.78;;;26.55;25.25
20955;BME280;10636;19.390;-99.256;2024-03-06T06:33:34;77717.41;;;26.56;25.25
20955;BME280;10636;19.390;-99.256;2024-03-06T06:36:03;77722.06;;;26.53;25.45
20955;BME280;10636;19.390;-99.256;2024-03-06T06:38:31;77716.03;;;26.55;25.28
20955;BME280;10636;19.390;-99.256;2024-03-06T06:41:03;77705.84;;;26.51;25.21
20955;BME280;10636;19.390;-99.256;2024-03-06T06:43:33;77706.53;;;26.52;25.16
20955;BME280;10636;19.390;-99.256;2024-03-06T06:46:02;77704.47;;;26.50;25.17
20955;BME280;10636;19.390;-99.256;2024-03-06T06:48:32;77707.84;;;26.51;25.07
20955;BME280;10636;19.390;-99.256;2024-03-06T06:51:04;77703.78;;;26.50;24.84
20955;BME280;10636;19.390;-99.256;2024-03-06T06:53:32;77701.06;;;26.48;25.01
20955;BME280;10636;19.390;-99.256;2024-03-06T06:56:04;77705.03;;;26.47;25.05
20955;BME280;10636;19.390;-99.256;2024-03-06T06:58:34;77690.84;;;26.44;25.07
20955;BME280;10636;19.390;-99.256;2024-03-06T07:01:03;77696.91;;;26.45;25.04
20955;BME280;10636;19.390;-99.256;2024-03-06T07:03:31;77700.25;;;26.43;24.92
20955;BME280;10636;19.390;-99.256;2024-03-06T07:06:00;77686.13;;;26.43;25.24
20955;BME280;10636;19.390;-99.256;2024-03-06T07:08:29;77684.09;;;26.43;24.93
20955;BME280;10636;19.390;-99.256;2024-03-06T07:10:58;77681.41;;;26.43;25.01
20955;BME280;10636;19.390;-99.256;2024-03-06T07:13:26;77686.13;;;26.43;24.78
20955;BME280;10636;19.390;-99.256;2024-03-06T07:15:56;77678.03;;;26.43;24.93
20955;BME280;10636;19.390;-99.256;2024-03-06T07:18:25;77667.88;;;26.41;24.96
20955;BME280;10636;19.390;-99.256;2024-03-06T07:20:53;77666.47;;;26.38;25.05
20955;BME280;10636;19.390;-99.256;2024-03-06T07:23:22;77663.09;;;26.38;24.82
20955;BME280;10636;19.390;-99.256;2024-03-06T07:25:50;77661.09;;;26.38;24.93
20955;BME280;10636;19.390;-99.256;2024-03-06T07:28:19;77641.41;;;26.31;24.45
20955;BME280;10636;19.390;-99.256;2024-03-06T07:30:47;77661.78;;;26.39;24.83
20955;BME280;10636;19.390;-99.256;2024-03-06T07:33:18;77665.81;;;26.40;24.77
20955;BME280;10636;19.390;-99.256;2024-03-06T07:35:46;77667.81;;;26.39;24.71
20955;BME280;10636;19.390;-99.256;2024-03-06T07:38:15;77671.16;;;26.38;24.44
20955;BME280;10636;19.390;-99.256;2024-03-06T07:40:43;77687.22;;;26.36;24.66
20955;BME280;10636;19.390;-99.256;2024-03-06T07:43:12;77687.22;;;26.36;24.40
20955;BME280;10636;19.390;-99.256;2024-03-06T07:45:41;77683.78;;;26.33;24.47
20955;BME280;10636;19.390;-99.256;2024-03-06T07:48:09;77688.53;;;26.34;24.58
20955;BME280;10636;19.390;-99.256;2024-03-06T07:50:39;77681.09;;;26.33;24.52
20955;BME280;10636;19.390;-99.256;2024-03-06T07:53:08;77670.91;;;26.29;24.71
20955;BME280;10636;19.390;-99.256;2024-03-06T07:55:36;77679.72;;;26.32;24.64
20955;BME280;10636;19.390;-99.256;2024-03-06T07:58:05;77673.56;;;26.27;24.35
20955;BME280;10636;19.390;-99.256;2024-03-06T08:00:34;77681.66;;;26.29;24.43
20955;BME280;10636;19.390;-99.256;2024-03-06T08:03:03;77678.25;;;26.27;24.44
20955;BME280;10636;19.390;-99.256;2024-03-06T08:05:31;77684.31;;;26.27;24.51
20955;BME280;10636;19.390;-99.256;2024-03-06T08:08:01;77684.31;;;26.27;24.71
20955;BME280;10636;19.390;-99.256;2024-03-06T08:10:31;77688.31;;;26.26;24.40
20955;BME280;10636;19.390;-99.256;2024-03-06T08:13:00;77695.66;;;26.26;24.59
20955;BME280;10636;19.390;-99.256;2024-03-06T08:15:29;77701.69;;;26.24;24.43
20955;BME280;10636;19.390;-99.256;2024-03-06T08:17:57;77708.38;;;26.23;24.42
20955;BME280;10636;19.390;-99.256;2024-03-06T08:20:26;77705.69;;;26.23;24.30
20955;BME280;10636;19.390;-99.256;2024-03-06T08:22:58;77708.38;;;26.23;24.09
20955;BME280;10636;19.390;-99.256;2024-03-06T08:25:29;77715.06;;;26.22;24.34
20955;BME280;10636;19.390;-99.256;2024-03-06T08:27:59;77708.94;;;26.20;24.19
20955;BME280;10636;19.390;-99.256;2024-03-06T08:30:29;77718.38;;;26.21;24.45
20955;BME280;10636;19.390;-99.256;2024-03-06T08:32:58;77727.06;;;26.19;24.48
20955;BME280;10636;19.390;-99.256;2024-03-06T08:35:27;77711.56;;;26.18;24.19
20955;BME280;10636;19.390;-99.256;2024-03-06T08:37:55;77708.13;;;26.15;24.03
20955;BME280;10636;19.390;-99.256;2024-03-06T08:40:24;77716.19;;;26.15;24.47
20955;BME280;10636;19.390;-99.256;2024-03-06T08:42:55;77710.81;;;26.15;24.29
20955;BME280;10636;19.390;-99.256;2024-03-06T08:45:24;77706.00;;;26.12;24.41
20955;BME280;10636;19.390;-99.256;2024-03-06T08:47:52;77714.13;;;26.14;24.43
20955;BME280;10636;19.390;-99.256;2024-03-06T08:50:21;77712.06;;;26.12;24.48
20955;BME280;10636;19.390;-99.256;2024-03-06T08:52:49;77710.72;;;26.11;24.33
20955;BME280;10636;19.390;-99.256;2024-03-06T08:55:18;77710.72;;;26.11;24.65
20955;BME280;10636;19.390;-99.256;2024-03-06T08:57:46;77709.34;;;26.10;24.11
20955;BME280;10636;19.390;-99.256;2024-03-06T09:00:18;77706.56;;;26.08;24.50
20955;BME280;10636;19.390;-99.256;2024-03-06T09:02:47;77701.19;;;26.08;24.16
20955;BME280;10636;19.390;-99.256;2024-03-06T09:05:17;77705.19;;;26.07;24.09
20955;BME280;10636;19.390;-99.256;2024-03-06T09:07:46;77699.78;;;26.05;24.15
20955;BME280;10636;19.390;-99.256;2024-03-06T09:10:15;77705.19;;;26.07;24.12
20955;BME280;10636;19.390;-99.256;2024-03-06T09:12:45;77712.50;;;26.04;24.08
20955;BME280;10636;19.390;-99.256;2024-03-06T09:15:14;77713.13;;;26.03;24.14
20955;BME280;10636;19.390;-99.256;2024-03-06T09:17:46;77708.41;;;26.01;23.92
20955;BME280;10636;19.390;-99.256;2024-03-06T09:20:17;77711.72;;;26.00;24.22
20955;BME280;10636;19.390;-99.256;2024-03-06T09:22:46;77701.56;;;25.98;23.88
20955;BME280;10636;19.390;-99.256;2024-03-06T09:25:14;77709.63;;;25.98;23.82
20955;BME280;10636;19.390;-99.256;2024-03-06T09:27:43;77710.31;;;25.99;24.06
20955;BME280;10636;19.390;-99.256;2024-03-06T09:30:13;77721.69;;;25.97;24.28
20955;BME280;10636;19.390;-99.256;2024-03-06T09:32:42;77709.53;;;25.94;23.88
20955;BME280;10636;19.390;-99.256;2024-03-06T09:35:12;77706.13;;;25.94;24.06
20955;BME280;10636;19.390;-99.256;2024-03-06T09:37:45;77710.13;;;25.93;23.72
20955;BME280;10636;19.390;-99.256;2024-03-06T09:40:21;77711.47;;;25.92;23.82
20955;BME280;10636;19.390;-99.256;2024-03-06T09:42:50;77716.84;;;25.92;24.30
20955;BME280;10636;19.390;-99.256;2024-03-06T09:45:19;77715.47;;;25.91;24.08
20955;BME280;10636;19.390;-99.256;2024-03-06T09:47:49;77707.31;;;25.89;23.91
20955;BME280;10636;19.390;-99.256;2024-03-06T09:50:23;77700.44;;;25.84;24.18
20955;BME280;10636;19.390;-99.256;2024-03-06T09:52:53;77701.25;;;25.88;23.74
20955;BME280;10636;19.390;-99.256;2024-03-06T09:55:23;77695.22;;;25.88;24.10
20955;BME280;10636;19.390;-99.256;2024-03-06T09:57:53;77701.84;;;25.85;23.82
20955;BME280;10636;19.390;-99.256;2024-03-06T10:00:22;77700.56;;;25.88;23.64
20955;BME280;10636;19.390;-99.256;2024-03-06T10:02:57;77705.91;;;25.86;23.55
20955;BME280;10636;19.390;-99.256;2024-03-06T10:05:28;77708.50;;;25.84;23.63
20955;BME280;10636;19.390;-99.256;2024-03-06T10:07:58;77704.44;;;25.83;24.13
20955;BME280;10636;19.390;-99.256;2024-03-06T10:10:27;77712.50;;;25.83;24.10
20955;BME280;10636;19.390;-99.256;2024-03-06T10:12:56;77708.47;;;25.81;23.66
20955;BME280;10636;19.390;-99.256;2024-03-06T10:15:26;77703.72;;;25.80;24.10
20955;BME280;10636;19.390;-99.256;2024-03-06T10:18:13;77694.97;;;25.79;23.95
20955;BME280;10636;19.390;-99.256;2024-03-06T10:20:46;77692.91;;;25.78;23.62
20955;BME280;10636;19.390;-99.256;2024-03-06T10:23:15;77697.56;;;25.77;23.81
20955;BME280;10636;19.390;-99.256;2024-03-06T10:25:44;77702.94;;;25.77;23.60
20955;BME280;10636;19.390;-99.256;2024-03-06T10:28:12;77696.22;;;25.76;23.98
20955;BME280;10636;19.390;-99.256;2024-03-06T10:30:42;77698.91;;;25.76;23.55
20955;BME280;10636;19.390;-99.256;2024-03-06T10:33:11;77710.97;;;25.75;23.74
20955;BME280;10636;19.390;-99.256;2024-03-06T10:35:41;77703.44;;;25.72;23.69
20955;BME280;10636;19.390;-99.256;2024-03-06T10:38:12;77701.44;;;25.72;24.23
20955;BME280;10636;19.390;-99.256;2024-03-06T10:40:41;77694.69;;;25.71;23.84
20955;BME280;10636;19.390;-99.256;2024-03-06T10:43:13;77700.75;;;25.72;23.78
20955;BME280;10636;19.390;-99.256;2024-03-06T10:45:47;77691.63;;;25.59;23.84
20955;BME280;10636;19.390;-99.256;2024-03-06T10:48:16;77706.13;;;25.72;23.85
20955;BME280;10636;19.390;-99.256;2024-03-06T10:50:46;77697.31;;;25.69;23.56
20955;BME280;10636;19.390;-99.256;2024-03-06T10:53:17;77704.06;;;25.70;23.82
20955;BME280;10636;19.390;-99.256;2024-03-06T10:55:46;77704.06;;;25.70;24.41
20955;BME280;10636;19.390;-99.256;2024-03-06T10:58:15;77704.69;;;25.69;23.90
20955;BME280;10636;19.390;-99.256;2024-03-06T11:00:46;77689.69;;;25.62;23.83
20955;BME280;10636;19.390;-99.256;2024-03-06T11:03:15;77700.00;;;25.69;24.02
20955;BME280;10636;19.390;-99.256;2024-03-06T11:05:44;77705.28;;;25.67;23.66
20955;BME280;10636;19.390;-99.256;2024-03-06T11:08:18;77707.94;;;25.65;23.89
20955;BME280;10636;19.390;-99.256;2024-03-06T11:10:47;77711.28;;;25.66;23.89
20955;BME280;10636;19.390;-99.256;2024-03-06T11:13:23;77714.63;;;25.64;24.18
20955;BME280;10636;19.390;-99.256;2024-03-06T11:15:53;77721.34;;;25.65;23.83
20955;BME280;10636;19.390;-99.256;2024-03-06T11:18:44;77722.66;;;25.64;23.73
20955;BME280;10636;19.390;-99.256;2024-03-06T11:21:32;77713.16;;;25.61;24.09
20955;BME280;10636;19.390;-99.256;2024-03-06T11:24:16;77726.00;;;25.63;24.03
20955;BME280;10636;19.390;-99.256;2024-03-06T11:26:49;77729.22;;;25.59;24.00
20955;BME280;10636;19.390;-99.256;2024-03-06T11:29:19;77726.59;;;25.61;23.95
20955;BME280;10636;19.390;-99.256;2024-03-06T11:32:05;77730.59;;;25.60;23.86
20955;BME280;10636;19.390;-99.256;2024-03-06T11:34:37;77728.59;;;25.61;23.76
20955;BME280;10636;19.390;-99.256;2024-03-06T11:37:07;77740.72;;;25.62;23.80
20955;BME280;10636;19.390;-99.256;2024-03-06T11:39:37;77733.28;;;25.60;23.60
20955;BME280;10636;19.390;-99.256;2024-03-06T11:42:07;77734.59;;;25.59;23.92
20955;BME280;10636;19.390;-99.256;2024-03-06T11:44:36;77744.03;;;25.60;24.22
20955;BME280;10636;19.390;-99.256;2024-03-06T11:47:06;77750.63;;;25.57;24.15
20955;BME280;10636;19.390;-99.256;2024-03-06T11:49:35;77746.66;;;25.58;23.78
20955;BME280;10636;19.390;-99.256;2024-03-06T11:52:05;77756.06;;;25.59;24.18
20955;BME280;10636;19.390;-99.256;2024-03-06T11:54:36;77756.06;;;25.59;24.06
20955;BME280;10636;19.390;-99.256;2024-03-06T11:57:05;77742.25;;;25.47;23.77
20955;BME280;10636;19.390;-99.256;2024-03-06T11:59:35;77753.25;;;25.55;24.40
20955;BME280;10636;19.390;-99.256;2024-03-06T12:02:05;77742.25;;;25.47;23.95
20955;BME280;10636;19.390;-99.256;2024-03-06T12:04:36;77769.41;;;25.57;24.29
20955;BME280;10636;19.390;-99.256;2024-03-06T12:07:05;77770.59;;;25.52;24.55
20955;BME280;10636;19.390;-99.256;2024-03-06T12:09:37;77774.59;;;25.51;24.83
20955;BME280;10636;19.390;-99.256;2024-03-06T12:12:06;77769.22;;;25.51;24.90
20955;BME280;10636;19.390;-99.256;2024-03-06T12:14:36;77760.91;;;25.43;25.00
20955;BME280;10636;19.390;-99.256;2024-03-06T12:17:05;77775.22;;;25.49;24.74
20955;BME280;10636;19.390;-99.256;2024-03-06T12:19:35;77771.91;;;25.51;25.09
20955;BME280;10636;19.390;-99.256;2024-03-06T12:22:06;77774.53;;;25.49;25.18
20955;BME280;10636;19.390;-99.256;2024-03-06T12:24:36;77777.22;;;25.49;24.67
20955;BME280;10636;19.390;-99.256;2024-03-06T12:27:07;77759.97;;;25.34;24.58
20955;BME280;10636;19.390;-99.256;2024-03-06T12:29:35;77781.34;;;25.52;24.54
20955;BME280;10636;19.390;-99.256;2024-03-06T12:32:15;77784.66;;;25.50;24.99
20955;BME280;10636;19.390;-99.256;2024-03-06T12:34:43;77795.38;;;25.50;24.99
20955;BME280;10636;19.390;-99.256;2024-03-06T12:37:12;77787.91;;;25.47;24.55
20955;BME280;10636;19.390;-99.256;2024-03-06T12:39:44;77794.31;;;25.38;24.45
20955;BME280;10636;19.390;-99.256;2024-03-06T12:42:13;77801.47;;;25.31;24.37
20955;BME280;10636;19.390;-99.256;2024-03-06T12:44:41;77799.25;;;25.25;24.26
20955;BME280;10636;19.390;-99.256;2024-03-06T12:47:10;77796.25;;;25.15;24.41
20955;BME280;10636;19.390;-99.256;2024-03-06T12:49:38;77810.34;;;25.16;24.41
20955;BME280;10636;19.390;-99.256;2024-03-06T12:52:07;77805.38;;;25.08;24.37
20955;BME280;10636;19.390;-99.256;2024-03-06T12:54:35;77813.25;;;25.04;24.06